Time;durP1;ratioP1;P1;durP2;ratioP2;P2;SDS_P1;SDS_P2;PMS_P1;PMS_P2;Temp;Humidity;BMP_temperature;BMP_pressure;BME280_temperature;BME280_humidity;BME280_pressure;Samples;Min_cycle;Max_cycle;Signal;HPM_P1;HPM_P2
2022/10/01 00:01:01;;;;;;;9.52;6.28;;;11.50;99.90;;;;;;5069454;28;20037;-74
2022/10/01 00:03:28;;;;;;;8.65;6.20;;;11.50;99.90;;;;;;5072490;28;20040;-74
2022/10/01 00:06:01;;;;;;;9.38;7.15;;;11.40;99.90;;;;;;5072997;28;20136;-75
2022/10/01 00:08:28;;;;;;;10.23;7.43;;;11.40;99.90;;;;;;5070474;28;20488;-74
2022/10/01 00:10:54;;;;;;;12.30;8.25;;;11.40;99.90;;;;;;5056174;28;20412;-74
2022/10/01 00:13:20;;;;;;;9.43;7.60;;;11.40;99.90;;;;;;5055566;28;20032;-74
2022/10/01 00:15:46;;;;;;;12.80;6.47;;;11.40;99.90;;;;;;5072500;28;20078;-74
2022/10/01 00:18:12;;;;;;;9.38;7.55;;;11.40;99.90;;;;;;5072308;28;20117;-74
2022/10/01 00:20:44;;;;;;;10.50;7.87;;;11.40;99.90;;;;;;5071870;28;20061;-75
2022/10/01 00:23:11;;;;;;;17.17;8.43;;;11.40;99.90;;;;;;5056321;28;20032;-74
2022/10/01 00:25:37;;;;;;;11.10;8.18;;;11.40;99.90;;;;;;5055801;28;20036;-74
2022/10/01 00:28:02;;;;;;;9.85;7.38;;;11.40;99.90;;;;;;5072375;28;20036;-74
2022/10/01 00:30:28;;;;;;;12.10;8.55;;;11.30;99.90;;;;;;5072287;28;20120;-74
2022/10/01 00:32:54;;;;;;;14.60;8.40;;;11.30;99.90;;;;;;5072383;28;20153;-74
2022/10/01 00:35:21;;;;;;;11.88;8.25;;;11.30;99.90;;;;;;5071888;28;20127;-74
2022/10/01 00:37:51;;;;;;;12.85;9.18;;;11.20;99.90;;;;;;5055557;28;20044;-74
2022/10/01 00:40:18;;;;;;;13.68;8.93;;;11.20;99.90;;;;;;5052946;28;20048;-74
2022/10/01 00:42:45;;;;;;;8.20;6.32;;;11.20;99.90;;;;;;5072646;28;20430;-74
2022/10/01 00:45:12;;;;;;;12.88;8.05;;;11.20;99.90;;;;;;5072141;28;20365;-74
2022/10/01 00:47:49;;;;;;;14.05;8.30;;;11.30;99.90;;;;;;5073047;28;20048;-74
2022/10/01 00:50:19;;;;;;;9.53;7.70;;;11.30;99.90;;;;;;5072371;28;20506;-74
2022/10/01 00:52:50;;;;;;;11.10;8.52;;;11.30;99.90;;;;;;5071865;28;20049;-74
2022/10/01 00:55:19;;;;;;;12.35;9.55;;;11.30;99.90;;;;;;5072137;28;20052;-74
2022/10/01 00:57:48;;;;;;;13.15;10.07;;;11.20;99.90;;;;;;5055519;28;20181;-74
2022/10/01 01:00:14;;;;;;;16.40;9.80;;;11.20;99.90;;;;;;5055112;28;20055;-74
2022/10/01 01:02:40;;;;;;;14.88;10.05;;;11.10;99.90;;;;;;5054940;28;20036;-74
2022/10/01 01:05:07;;;;;;;12.02;9.10;;;11.20;99.90;;;;;;5072124;28;20035;-74
2022/10/01 01:07:35;;;;;;;14.10;9.80;;;11.20;99.90;;;;;;5071393;28;20090;-74
2022/10/01 01:10:03;;;;;;;13.85;9.30;;;11.20;99.90;;;;;;5071663;28;20136;-74
2022/10/01 01:12:46;;;;;;;11.38;8.02;;;11.10;99.90;;;;;;5071397;28;20426;-74
2022/10/01 01:15:38;;;;;;;12.77;9.70;;;11.10;99.90;;;;;;5070335;28;20044;-74
2022/10/01 01:18:21;;;;;;;12.48;9.27;;;11.20;99.90;;;;;;5069312;28;20400;-74
2022/10/01 01:21:11;;;;;;;16.73;10.63;;;11.10;99.90;;;;;;5052465;28;20116;-73
2022/10/01 01:23:37;;;;;;;11.25;8.93;;;11.10;99.90;;;;;;5070492;28;20037;-73
2022/10/01 01:26:03;;;;;;;15.32;9.52;;;11.10;99.90;;;;;;5071444;28;20044;-73
2022/10/01 01:28:34;;;;;;;14.67;9.07;;;11.00;99.90;;;;;;5054657;28;20037;-73
2022/10/01 01:31:06;;;;;;;12.70;8.80;;;11.10;99.90;;;;;;5070881;28;20052;-74
2022/10/01 01:33:36;;;;;;;13.75;9.10;;;11.00;99.90;;;;;;5068890;28;20056;-73
2022/10/01 01:36:09;;;;;;;14.55;8.85;;;11.00;99.90;;;;;;5071359;28;20388;-73
2022/10/01 01:38:44;;;;;;;12.25;9.02;;;11.00;99.90;;;;;;5071554;28;20484;-72
2022/10/01 01:41:11;;;;;;;11.75;7.70;;;10.90;99.90;;;;;;5054385;28;20480;-73
2022/10/01 01:43:42;;;;;;;11.88;8.60;;;10.90;99.90;;;;;;5068695;28;20115;-72
2022/10/01 01:46:10;;;;;;;12.27;9.13;;;10.90;99.90;;;;;;5071580;28;20420;-72
2022/10/01 01:48:40;;;;;;;12.57;9.07;;;10.90;99.90;;;;;;5070777;28;20040;-73
2022/10/01 01:51:22;;;;;;;15.20;10.23;;;10.90;99.90;;;;;;5071266;28;20040;-73
2022/10/01 01:53:48;;;;;;;17.23;8.70;;;10.90;99.90;;;;;;5070988;28;20044;-73
2022/10/01 01:56:16;;;;;;;13.85;9.40;;;10.80;99.90;;;;;;5071194;28;20039;-73
2022/10/01 01:58:43;;;;;;;13.98;10.02;;;10.80;99.90;;;;;;5070452;28;20109;-73
2022/10/01 02:01:44;;;;;;;14.23;8.60;;;10.80;99.90;;;;;;5071364;28;20364;-73
2022/10/01 02:04:39;;;;;;;14.00;9.35;;;10.80;99.90;;;;;;5069787;28;20032;-73
2022/10/01 02:07:39;;;;;;;9.63;7.60;;;10.70;99.90;;;;;;5050446;28;20041;-74
2022/10/01 02:10:17;;;;;;;10.73;7.88;;;10.80;99.90;;;;;;5069226;28;20036;-73
2022/10/01 02:13:04;;;;;;;10.43;7.53;;;10.80;99.90;;;;;;5051322;28;20396;-74
2022/10/01 02:15:55;;;;;;;12.35;7.50;;;10.80;99.90;;;;;;5070560;28;20040;-75
2022/10/01 02:18:29;;;;;;;8.75;6.97;;;10.80;99.90;;;;;;5068498;28;20060;-74
2022/10/01 02:21:01;;;;;;;12.60;8.82;;;10.80;99.90;;;;;;5070764;28;20041;-75
2022/10/01 02:23:41;;;;;;;8.25;6.68;;;10.80;99.90;;;;;;5070341;28;20051;-74
2022/10/01 02:26:16;;;;;;;13.55;8.02;;;10.80;99.90;;;;;;5068491;28;20041;-75
2022/10/01 02:28:44;;;;;;;10.52;7.63;;;10.80;99.90;;;;;;5070211;28;20070;-73
2022/10/01 02:31:12;;;;;;;12.30;8.45;;;10.80;99.90;;;;;;5052020;28;20088;-74
2022/10/01 02:33:40;;;;;;;11.05;7.68;;;10.70;99.90;;;;;;5053591;28;20123;-74
2022/10/01 02:36:08;;;;;;;11.25;7.80;;;10.70;99.90;;;;;;5053704;28;20040;-74
2022/10/01 02:38:36;;;;;;;11.80;7.15;;;10.80;99.90;;;;;;5067987;28;20465;-74
2022/10/01 02:41:05;;;;;;;9.65;6.93;;;10.70;99.90;;;;;;5070019;28;20047;-74
2022/10/01 02:43:41;;;;;;;10.20;6.78;;;10.70;99.90;;;;;;5069694;28;20166;-73
2022/10/01 02:46:20;;;;;;;10.40;6.65;;;10.70;99.90;;;;;;5068940;28;20042;-75
2022/10/01 02:48:46;;;;;;;8.50;6.53;;;10.80;99.90;;;;;;5069433;28;20055;-74
2022/10/01 02:51:33;;;;;;;9.27;7.03;;;10.80;99.90;;;;;;5069777;28;20045;-75
2022/10/01 02:54:13;;;;;;;8.00;6.32;;;10.80;99.90;;;;;;5067277;28;20040;-75
2022/10/01 02:59:24;;;;;;;7.75;5.65;;;10.80;99.90;;;;;;5053984;28;20052;-74
2022/10/01 03:01:49;;;;;;;7.72;5.95;;;10.90;99.90;;;;;;5052994;28;20036;-74
2022/10/01 03:04:17;;;;;;;8.23;6.07;;;10.90;99.90;;;;;;5052896;28;20064;-74
2022/10/01 03:06:42;;;;;;;9.68;6.53;;;10.90;99.90;;;;;;5050436;28;20040;-74
2022/10/01 03:09:08;;;;;;;7.87;5.23;;;10.90;99.90;;;;;;5069737;28;20036;-74
2022/10/01 03:11:34;;;;;;;8.10;6.40;;;10.90;99.90;;;;;;5069963;28;20110;-74
2022/10/01 03:14:00;;;;;;;8.27;6.05;;;10.90;99.90;;;;;;5069406;28;20123;-74
2022/10/01 03:16:26;;;;;;;6.88;4.93;;;10.90;99.90;;;;;;5069332;28;20124;-74
2022/10/01 03:18:52;;;;;;;7.15;5.18;;;10.90;99.90;;;;;;5068898;28;20412;-74
2022/10/01 03:21:17;;;;;;;7.05;5.65;;;11.00;99.90;;;;;;5052586;28;20100;-74
2022/10/01 03:23:43;;;;;;;7.70;4.97;;;11.00;99.90;;;;;;5069023;28;20032;-75
2022/10/01 03:26:09;;;;;;;7.67;5.47;;;11.00;99.90;;;;;;5069318;28;20037;-74
2022/10/01 03:28:34;;;;;;;6.10;5.30;;;11.40;99.90;;;;;;5052841;28;20282;-74
2022/10/01 03:31:06;;;;;;;7.07;5.57;;;11.00;99.90;;;;;;5069098;28;20037;-75
2022/10/01 03:33:31;;;;;;;6.75;5.43;;;11.00;99.90;;;;;;5069637;28;20267;-74
2022/10/01 03:35:57;;;;;;;6.43;4.77;;;11.10;99.90;;;;;;5054908;28;20043;-75
2022/10/01 03:38:23;;;;;;;7.03;4.97;;;11.20;99.90;;;;;;5056493;28;20037;-74
2022/10/01 03:40:48;;;;;;;5.27;4.10;;;11.20;99.90;;;;;;5056401;28;20696;-73
2022/10/01 03:43:14;;;;;;;6.45;4.18;;;11.10;99.90;;;;;;5073198;28;20056;-74
2022/10/01 03:45:42;;;;;;;5.47;4.15;;;11.20;99.90;;;;;;5073456;28;20056;-74
2022/10/01 03:48:08;;;;;;;4.68;3.80;;;11.30;99.90;;;;;;5073150;28;20032;-74
2022/10/01 03:50:35;;;;;;;4.72;4.03;;;11.30;99.90;;;;;;5056654;28;20052;-73
2022/10/01 03:53:01;;;;;;;5.63;3.97;;;11.20;99.90;;;;;;5072923;28;20468;-74
2022/10/01 03:55:27;;;;;;;3.57;2.70;;;11.20;99.90;;;;;;5072732;28;20116;-74
2022/10/01 03:57:52;;;;;;;4.38;2.90;;;11.30;99.90;;;;;;5056379;28;20040;-74
2022/10/01 04:00:18;;;;;;;5.90;3.03;;;11.40;99.90;;;;;;5072898;28;20086;-74
2022/10/01 04:02:44;;;;;;;3.78;3.13;;;11.40;99.90;;;;;;5056173;28;20038;-75
2022/10/01 04:05:11;;;;;;;2.67;2.30;;;11.40;99.90;;;;;;5056106;28;20489;-75
2022/10/01 04:07:36;;;;;;;4.28;3.00;;;11.40;99.90;;;;;;5056474;28;20036;-75
2022/10/01 04:10:02;;;;;;;3.42;2.65;;;11.50;99.90;;;;;;5056091;28;20047;-75
2022/10/01 04:12:28;;;;;;;6.68;2.75;;;11.50;99.90;;;;;;5055869;28;20048;-75
2022/10/01 04:14:54;;;;;;;3.53;2.85;;;11.50;99.90;;;;;;5056015;28;20064;-74
2022/10/01 04:17:19;;;;;;;4.57;2.57;;;11.60;99.90;;;;;;5072751;28;20047;-74
2022/10/01 04:19:45;;;;;;;2.87;2.33;;;11.50;99.90;;;;;;5072613;28;20045;-75
2022/10/01 04:22:11;;;;;;;4.20;2.23;;;11.60;99.90;;;;;;5073217;28;20047;-74
2022/10/01 04:24:36;;;;;;;3.30;2.40;;;11.60;99.90;;;;;;5072658;28;20674;-74
2022/10/01 04:27:02;;;;;;;5.20;2.87;;;11.60;99.90;;;;;;5072643;28;20384;-74
2022/10/01 04:29:28;;;;;;;3.43;2.40;;;11.60;99.90;;;;;;5072617;28;20509;-74
2022/10/01 04:31:53;;;;;;;2.60;2.07;;;11.60;99.90;;;;;;5072551;28;20794;-73
2022/10/01 04:34:51;;;;;;;2.63;2.05;;;11.60;99.90;;;;;;5072326;28;20052;-73
2022/10/01 04:37:08;;;;;;;3.30;2.58;;;11.70;99.90;;;;;;5071699;28;20056;-74
2022/10/01 04:39:33;;;;;;;3.20;1.97;;;11.60;99.90;;;;;;5072386;28;20033;-73
2022/10/01 04:41:59;;;;;;;3.30;2.63;;;11.70;99.90;;;;;;5072094;28;20037;-74
2022/10/01 04:44:25;;;;;;;4.88;2.40;;;11.60;99.90;;;;;;5072036;28;20132;-74
2022/10/01 04:46:51;;;;;;;4.07;2.28;;;11.70;99.90;;;;;;5071359;28;20111;-74
2022/10/01 04:49:16;;;;;;;4.43;2.60;;;11.70;99.90;;;;;;5055824;28;20131;-74
2022/10/01 04:51:42;;;;;;;2.30;2.03;;;11.60;99.90;;;;;;5072605;28;20113;-74
2022/10/01 04:54:07;;;;;;;5.70;2.50;;;11.70;99.90;;;;;;5055661;28;20048;-74
2022/10/01 04:56:33;;;;;;;3.20;2.27;;;11.70;99.90;;;;;;5037305;28;20044;-74
2022/10/01 04:58:59;;;;;;;2.93;2.33;;;11.80;99.90;;;;;;5036766;28;20327;-74
2022/10/01 05:01:24;;;;;;;4.00;2.47;;;11.70;99.90;;;;;;5071697;28;20119;-74
2022/10/01 05:03:50;;;;;;;2.90;2.37;;;11.80;99.90;;;;;;5054798;28;20283;-74
2022/10/01 05:06:16;;;;;;;3.90;2.77;;;11.80;99.90;;;;;;5069604;28;20385;-74
2022/10/01 05:08:41;;;;;;;5.17;2.60;;;11.70;99.90;;;;;;5071656;28;20275;-74
2022/10/01 05:11:07;;;;;;;3.27;2.40;;;11.80;99.90;;;;;;5071028;28;20494;-74
2022/10/01 05:13:33;;;;;;;3.77;3.13;;;11.80;99.90;;;;;;5055280;28;20275;-74
2022/10/01 05:15:59;;;;;;;3.63;2.60;;;11.80;99.90;;;;;;5054627;28;20127;-74
2022/10/01 05:18:25;;;;;;;3.80;2.83;;;11.80;99.90;;;;;;5071111;28;20291;-74
2022/10/01 05:20:51;;;;;;;3.70;3.00;;;11.80;99.90;;;;;;5054324;28;20053;-74
2022/10/01 05:23:16;;;;;;;2.47;2.27;;;11.80;99.90;;;;;;5071922;28;20097;-74
2022/10/01 05:25:45;;;;;;;4.30;3.13;;;11.80;99.90;;;;;;5054785;28;20290;-73
2022/10/01 05:28:12;;;;;;;5.40;3.28;;;11.80;99.90;;;;;;5071255;28;20941;-75
2022/10/01 05:30:38;;;;;;;4.75;3.60;;;11.70;99.90;;;;;;5071464;28;20131;-75
2022/10/01 05:33:05;;;;;;;3.45;2.90;;;11.70;99.90;;;;;;5071040;28;20166;-75
2022/10/01 05:35:31;;;;;;;6.93;3.63;;;11.80;99.90;;;;;;5054730;28;20115;-75
2022/10/01 05:38:01;;;;;;;8.30;3.60;;;11.80;99.90;;;;;;5071020;28;20115;-75
2022/10/01 05:40:28;;;;;;;5.75;4.07;;;11.80;99.90;;;;;;5070894;28;20551;-74
2022/10/01 05:42:58;;;;;;;5.45;4.55;;;11.80;99.90;;;;;;5070680;28;20044;-74
2022/10/01 05:45:26;;;;;;;5.72;3.80;;;11.90;99.90;;;;;;5071029;28;20543;-75
2022/10/01 05:48:00;;;;;;;6.57;5.25;;;11.90;99.90;;;;;;5070827;28;20630;-75
2022/10/01 05:50:30;;;;;;;6.63;4.30;;;11.80;99.90;;;;;;5070756;28;20094;-75
2022/10/01 05:52:56;;;;;;;7.63;5.38;;;11.90;99.90;;;;;;5068475;28;20041;-75
2022/10/01 05:55:22;;;;;;;7.82;5.05;;;11.90;99.90;;;;;;5070725;28;20036;-75
2022/10/01 05:57:55;;;;;;;;;;;11.90;99.90;;;;;;5070949;28;20036;-75
2022/10/01 06:00:21;;;;;;;7.18;5.22;;;11.90;99.90;;;;;;5053169;28;20455;-75
2022/10/01 06:02:51;;;;;;;7.10;5.43;;;11.90;99.90;;;;;;5071090;28;20068;-75
2022/10/01 06:05:18;;;;;;;9.38;5.88;;;11.90;99.90;;;;;;5053908;28;20434;-75
2022/10/01 06:07:43;;;;;;;8.68;6.53;;;12.00;99.90;;;;;;5037291;28;20123;-75
2022/10/01 06:10:09;;;;;;;10.00;5.93;;;12.30;99.90;;;;;;5053343;28;20123;-75
2022/10/01 06:12:35;;;;;;;12.20;6.90;;;11.90;99.90;;;;;;5035403;28;20084;-74
2022/10/01 06:15:01;;;;;;;10.77;7.50;;;11.90;99.90;;;;;;5070742;28;20048;-76
2022/10/01 06:17:26;;;;;;;14.43;8.07;;;11.90;99.90;;;;;;5070212;28;20051;-75
2022/10/01 06:19:52;;;;;;;13.67;6.97;;;11.80;99.90;;;;;;5070136;28;20307;-75
2022/10/01 06:22:18;;;;;;;8.20;6.45;;;11.90;99.90;;;;;;5070130;28;20044;-75
2022/10/01 06:24:43;;;;;;;9.80;8.33;;;11.90;99.90;;;;;;5053526;28;20048;-75
2022/10/01 06:27:10;;;;;;;12.70;7.60;;;12.00;99.90;;;;;;5053339;28;20040;-76
2022/10/01 06:29:36;;;;;;;9.52;7.00;;;12.00;99.90;;;;;;5053819;28;20036;-77
2022/10/01 06:32:02;;;;;;;10.82;7.80;;;12.00;99.90;;;;;;5068936;28;20048;-76
2022/10/01 06:34:27;;;;;;;14.70;8.77;;;12.10;99.90;;;;;;5052500;28;20048;-76
2022/10/01 06:36:53;;;;;;;12.67;8.57;;;12.10;99.90;;;;;;5052355;28;20040;-76
2022/10/01 06:39:21;;;;;;;13.30;8.32;;;12.00;99.90;;;;;;5068539;28;20047;-76
2022/10/01 06:41:47;;;;;;;15.07;8.85;;;12.10;99.90;;;;;;5068273;28;20093;-75
2022/10/01 06:44:13;;;;;;;13.63;8.57;;;12.10;99.90;;;;;;5052468;28;20036;-75
2022/10/01 06:46:39;;;;;;;14.00;8.90;;;12.20;99.90;;;;;;5035812;28;20033;-76
2022/10/01 06:49:05;;;;;;;15.13;9.80;;;12.20;99.90;;;;;;5051927;28;20048;-75
2022/10/01 06:54:17;;;;;;;14.93;11.50;;;12.30;99.90;;;;;;5067887;28;20286;-76
2022/10/01 06:56:43;;;;;;;17.17;11.30;;;12.50;99.90;;;;;;5068719;28;20071;-76
2022/10/01 06:59:08;;;;;;;17.52;11.52;;;12.60;99.90;;;;;;5068109;28;20045;-76
2022/10/01 07:01:35;;;;;;;17.00;11.17;;;12.80;99.90;;;;;;5069707;28;20036;-77
2022/10/01 07:04:01;;;;;;;16.25;11.25;;;12.90;99.90;;;;;;5069168;28;20283;-76
2022/10/01 07:06:27;;;;;;;18.25;11.07;;;13.10;99.90;;;;;;5052810;28;20029;-75
2022/10/01 07:08:53;;;;;;;18.40;10.18;;;13.20;99.90;;;;;;5069295;28;20487;-76
2022/10/01 07:11:19;;;;;;;14.55;10.07;;;13.40;99.90;;;;;;5052132;28;20098;-77
2022/10/01 07:13:45;;;;;;;10.60;8.20;;;13.60;99.90;;;;;;5052483;28;20041;-76
2022/10/01 07:16:10;;;;;;;11.50;8.45;;;13.90;99.90;;;;;;5052359;28;20051;-76
2022/10/01 07:18:36;;;;;;;10.20;7.47;;;13.90;99.90;;;;;;5035688;28;20036;-77
2022/10/01 07:21:03;;;;;;;11.85;7.05;;;13.90;99.90;;;;;;5068654;28;20053;-76
2022/10/01 07:23:29;;;;;;;9.75;6.35;;;13.80;99.90;;;;;;5052440;28;20037;-76
2022/10/01 07:25:55;;;;;;;11.55;6.75;;;13.70;99.90;;;;;;5069642;28;20033;-76
2022/10/01 07:28:24;;;;;;;15.43;8.20;;;13.70;99.90;;;;;;5068881;28;20036;-76
2022/10/01 07:30:58;;;;;;;13.50;6.55;;;13.70;99.90;;;;;;5053003;28;20654;-77
2022/10/01 07:33:23;;;;;;;9.88;5.55;;;14.00;99.90;;;;;;5067243;28;20124;-76
2022/10/01 07:35:49;;;;;;;8.30;5.07;;;14.10;99.90;;;;;;5069479;28;20123;-77
2022/10/01 07:38:15;;;;;;;13.30;4.53;;;14.00;99.90;;;;;;5052266;28;20404;-77
2022/10/01 07:40:41;;;;;;;10.30;4.60;;;13.90;99.90;;;;;;5052157;28;20689;-76
2022/10/01 07:43:08;;;;;;;10.43;3.95;;;13.80;99.90;;;;;;5035545;28;20032;-77
2022/10/01 07:45:33;;;;;;;10.80;4.75;;;13.80;99.90;;;;;;5069335;28;20032;-77
2022/10/01 07:48:01;;;;;;;10.05;4.10;;;14.00;99.90;;;;;;5052571;28;20048;-78
2022/10/01 07:50:29;;;;;;;9.60;3.63;;;14.60;99.90;;;;;;5051977;28;20036;-78
2022/10/01 07:52:57;;;;;;;12.05;3.97;;;15.40;99.90;;;;;;5069017;28;20040;-77
2022/10/01 07:55:25;;;;;;;8.13;2.50;;;16.20;99.90;;;;;;5068991;28;20132;-76
2022/10/01 07:57:56;;;;;;;8.27;2.28;;;16.90;99.90;;;;;;5068858;28;20492;-78
2022/10/01 08:00:24;;;;;;;5.45;1.60;;;17.50;99.90;;;;;;5052070;28;20492;-76
2022/10/01 08:02:52;;;;;;;6.82;2.03;;;17.90;99.90;;;;;;5068606;28;20093;-77
2022/10/01 08:05:20;;;;;;;5.55;1.63;;;18.20;99.90;;;;;;5068378;28;20049;-76
2022/10/01 08:07:47;;;;;;;5.75;1.85;;;18.50;99.90;;;;;;5052152;28;20040;-74
2022/10/01 08:10:14;;;;;;;6.55;1.80;;;18.80;99.90;;;;;;5051709;28;20037;-78
2022/10/01 08:12:43;;;;;;;8.68;2.03;;;19.00;99.90;;;;;;5068704;28;20048;-78
2022/10/01 08:15:10;;;;;;;8.70;1.88;;;19.20;99.90;;;;;;5067729;28;20580;-75
2022/10/01 08:17:39;;;;;;;5.35;1.52;;;19.40;99.90;;;;;;5069086;28;20036;-75
2022/10/01 08:20:07;;;;;;;8.50;1.98;;;19.40;99.90;;;;;;5035260;28;20068;-75
2022/10/01 08:22:33;;;;;;;5.80;1.60;;;19.80;99.90;;;;;;5069418;28;20047;-76
2022/10/01 08:24:59;;;;;;;5.22;1.30;;;19.90;99.90;;;;;;5072388;28;20131;-75
2022/10/01 08:27:26;;;;;;;7.32;1.58;;;19.90;99.90;;;;;;5072166;28;20124;-76
2022/10/01 08:29:52;;;;;;;7.97;1.65;;;20.10;99.90;;;;;;5072191;28;20046;-76
2022/10/01 08:32:18;;;;;;;7.10;1.63;;;20.30;99.90;;;;;;5055006;28;20550;-75
2022/10/01 08:34:44;;;;;;;5.50;1.13;;;20.60;99.90;;;;;;5071864;28;20106;-75
2022/10/01 08:37:09;;;;;;;8.80;1.27;;;20.90;99.90;;;;;;5072164;28;20048;-75
2022/10/01 08:39:36;;;;;;;6.30;1.30;;;21.00;99.90;;;;;;5055341;28;20041;-76
2022/10/01 08:42:39;;;;;;;7.18;1.42;;;21.10;99.90;;;;;;5056110;28;20036;-77
2022/10/01 08:45:18;;;;;;;6.38;1.08;;;21.10;99.90;;;;;;5056320;28;20125;-76
2022/10/01 08:48:08;;;;;;;5.65;0.95;;;21.40;99.90;;;;;;5071576;28;20115;-75
2022/10/01 08:50:56;;;;;;;5.75;1.10;;;21.80;99.90;;;;;;5071895;28;20052;-77
2022/10/01 08:53:58;;;;;;;6.07;1.30;;;22.20;99.90;;;;;;5055813;28;20446;-78
2022/10/01 08:56:32;;;;;;;6.28;1.20;;;22.30;99.90;;;;;;5072328;28;20106;-77
2022/10/01 08:59:03;;;;;;;10.00;1.48;;;22.30;99.90;;;;;;5071128;28;20072;-77
2022/10/01 09:01:29;;;;;;;8.77;1.42;;;22.10;99.90;;;;;;5072095;28;20445;-78
2022/10/01 09:03:55;;;;;;;9.23;1.83;;;21.70;99.90;;;;;;5072288;28;20115;-76
2022/10/01 09:06:25;;;;;;;8.55;1.35;;;21.40;99.90;;;;;;5056037;28;20527;-77
2022/10/01 09:08:54;;;;;;;9.40;1.60;;;21.10;99.90;;;;;;5072539;28;20484;-77
2022/10/01 09:11:32;;;;;;;5.22;1.17;;;20.60;99.90;;;;;;5069910;28;20036;-79
2022/10/01 09:14:16;;;;;;;10.00;1.90;;;20.50;99.90;;;;;;5069984;28;20430;-78
2022/10/01 09:17:20;;;;;;;7.88;1.42;;;20.80;99.90;;;;;;5071487;28;20036;-76
2022/10/01 09:19:55;;;;;;;8.88;1.60;;;20.70;99.90;;;;;;5071445;28;20055;-78
2022/10/01 09:22:28;;;;;;;9.27;1.85;;;20.60;99.90;;;;;;5071734;28;20037;-77
2022/10/01 09:25:08;;;;;;;8.75;1.38;;;21.10;99.90;;;;;;5054649;28;20044;-76
2022/10/01 09:27:36;;;;;;;8.63;2.03;;;21.60;99.90;;;;;;5071330;28;20036;-76
2022/10/01 09:30:18;;;;;;;5.25;1.17;;;21.70;99.90;;;;;;5071620;28;20041;-75
2022/10/01 09:33:23;;;;;;;8.05;1.38;;;22.00;99.90;;;;;;5071494;28;20507;-75
2022/10/01 09:36:15;;;;;;;8.55;1.50;;;22.10;99.90;;;;;;5071286;28;20048;-74
2022/10/01 09:38:43;;;;;;;7.95;1.45;;;21.60;99.90;;;;;;5069304;28;20036;-76
2022/10/01 09:41:10;;;;;;;9.48;1.88;;;20.90;99.90;;;;;;5071075;28;20127;-75
2022/10/01 09:43:38;;;;;;;12.27;2.35;;;20.40;99.90;;;;;;5054393;28;20032;-76
2022/10/01 09:46:12;;;;;;;9.48;1.70;;;19.90;99.90;;;;;;5071570;28;20045;-76
2022/10/01 09:49:01;;;;;;;9.55;1.88;;;19.60;99.90;;;;;;5054734;28;20036;-76
2022/10/01 09:51:43;;;;;;;8.13;1.88;;;19.50;99.90;;;;;;5071419;28;20036;-76
2022/10/01 09:54:24;;;;;;;6.35;1.45;;;19.50;99.90;;;;;;5071763;28;20121;-76
2022/10/01 09:56:58;;;;;;;5.20;1.25;;;19.80;99.90;;;;;;5071292;28;20032;-75
2022/10/01 09:59:36;;;;;;;5.18;1.00;;;19.90;99.90;;;;;;5070720;28;20102;-76
2022/10/01 10:02:07;;;;;;;8.40;1.40;;;19.50;99.90;;;;;;5071391;28;20037;-75
2022/10/01 10:04:32;;;;;;;5.60;1.20;;;19.20;99.90;;;;;;5072462;28;20050;-79
2022/10/01 10:07:01;;;;;;;6.47;1.45;;;18.60;99.90;;;;;;5070945;28;20119;-78
2022/10/01 10:09:32;;;;;;;6.13;1.02;;;17.90;99.90;;;;;;5069595;28;20040;-79
2022/10/01 10:11:59;;;;;;;8.45;1.02;;;17.60;99.90;;;;;;5070389;28;20136;-79
2022/10/01 10:14:33;;;;;;;4.45;0.75;;;17.20;99.90;;;;;;5051674;28;20044;-79
2022/10/01 10:17:05;;;;;;;5.97;1.10;;;16.90;99.90;;;;;;5069903;28;20093;-76
2022/10/01 10:19:32;;;;;;;16.17;2.33;;;16.60;99.90;;;;;;5052669;28;20385;-77
2022/10/01 10:22:10;;;;;;;6.07;1.00;;;16.30;99.90;;;;;;5069472;28;20102;-77
2022/10/01 10:24:36;;;;;;;4.68;0.77;;;15.90;99.90;;;;;;5067450;28;20055;-76
2022/10/01 10:27:05;;;;;;;3.47;0.38;;;15.50;99.90;;;;;;5053735;28;20040;-77
2022/10/01 10:29:34;;;;;;;2.65;0.50;;;15.10;99.90;;;;;;5066918;28;20044;-77
2022/10/01 10:32:24;;;;;;;2.17;0.40;;;14.80;99.90;;;;;;5069860;28;20047;-77
2022/10/01 10:34:51;;;;;;;4.70;0.68;;;14.60;99.90;;;;;;5063302;28;20396;-77
2022/10/01 10:37:31;;;;;;;2.72;0.63;;;14.50;99.90;;;;;;5071087;28;20531;-76
2022/10/01 10:39:57;;;;;;;3.15;0.57;;;14.50;99.90;;;;;;5069623;28;20040;-76
2022/10/01 10:42:24;;;;;;;4.57;0.70;;;14.90;99.90;;;;;;5052600;28;20071;-76
2022/10/01 10:45:02;;;;;;;3.15;0.75;;;15.50;99.90;;;;;;5067134;28;20089;-76
2022/10/01 10:47:30;;;;;;;3.40;0.70;;;16.60;99.90;;;;;;5067863;28;20396;-77
2022/10/01 10:49:57;;;;;;;4.38;1.00;;;17.60;99.90;;;;;;5066892;28;20040;-77
2022/10/01 10:52:32;;;;;;;4.38;0.80;;;18.50;99.90;;;;;;5053394;28;20089;-78
2022/10/01 10:55:19;;;;;;;3.55;0.90;;;19.50;99.90;;;;;;5053342;28;20052;-75
2022/10/01 10:57:45;;;;;;;4.38;0.80;;;19.50;99.90;;;;;;5069056;28;20487;-77
2022/10/01 11:00:17;;;;;;;4.28;0.95;;;19.40;99.90;;;;;;5036602;28;20044;-78
2022/10/01 11:03:16;;;;;;;4.93;0.85;;;18.90;99.90;;;;;;5069658;28;20097;-76
2022/10/01 11:05:43;;;;;;;5.57;0.85;;;18.30;99.90;;;;;;5051485;28;20029;-75
2022/10/01 11:08:18;;;;;;;3.67;0.60;;;17.90;99.90;;;;;;5069762;28;20174;-75
2022/10/01 11:11:17;;;;;;;4.72;0.73;;;17.50;99.90;;;;;;5069200;28;20044;-75
2022/10/01 11:14:21;;;;;;;5.88;0.98;;;17.10;99.90;;;;;;5051845;28;20037;-77
2022/10/01 11:17:09;;;;;;;4.13;0.80;;;16.90;99.90;;;;;;5052491;28;20115;-76
2022/10/01 11:19:44;;;;;;;3.38;0.85;;;17.00;99.90;;;;;;5067875;28;20048;-77
2022/10/01 11:22:15;;;;;;;5.32;0.90;;;17.10;99.90;;;;;;5052478;28;20076;-75
2022/10/01 11:24:56;;;;;;;5.28;1.13;;;17.30;99.90;;;;;;5069228;28;20051;-76
2022/10/01 11:27:43;;;;;;;3.47;0.70;;;18.00;99.90;;;;;;5067842;28;20032;-78
2022/10/01 11:30:25;;;;;;;2.67;0.75;;;19.10;99.90;;;;;;5068976;28;20036;-76
2022/10/01 11:32:54;;;;;;;4.55;0.70;;;19.80;99.90;;;;;;5068916;28;20094;-77
2022/10/01 11:35:54;;;;;;;3.05;0.60;;;20.20;99.90;;;;;;5069548;28;20048;-77
2022/10/01 11:38:22;;;;;;;4.35;0.88;;;20.60;99.90;;;;;;5069880;28;20072;-77
2022/10/01 11:40:54;;;;;;;5.45;0.77;;;20.60;99.90;;;;;;5068980;28;20059;-77
2022/10/01 11:43:26;;;;;;;6.78;0.82;;;21.00;99.90;;;;;;5052355;28;20056;-77
2022/10/01 11:46:14;;;;;;;5.55;0.77;;;21.30;99.90;;;;;;5068468;28;20186;-76
2022/10/01 11:48:46;;;;;;;5.57;1.35;;;21.80;99.90;;;;;;5068157;28;20097;-75
2022/10/01 11:51:21;;;;;;;5.95;0.95;;;21.60;99.90;;;;;;5069182;28;20685;-75
2022/10/01 11:53:52;;;;;;;6.45;1.50;;;21.30;99.90;;;;;;5069189;28;20511;-75
2022/10/01 11:59:42;;;;;;;7.22;1.45;;;20.10;99.90;;;;;;5071774;28;20048;-75
2022/10/01 12:02:17;;;;;;;7.28;1.40;;;19.70;99.90;;;;;;5054111;28;20035;-76
2022/10/01 12:05:03;;;;;;;9.88;1.20;;;19.40;99.90;;;;;;5072379;28;20044;-77
2022/10/01 12:07:38;;;;;;;11.07;1.95;;;19.30;99.90;;;;;;5071428;28;20400;-77
2022/10/01 12:10:37;;;;;;;5.95;1.30;;;19.10;99.90;;;;;;5073197;28;20396;-77
2022/10/01 12:13:06;;;;;;;6.00;1.30;;;18.90;99.90;;;;;;5071025;28;20072;-76
2022/10/01 12:15:42;;;;;;;9.40;1.30;;;18.80;99.90;;;;;;5056627;28;20072;-76
2022/10/01 12:18:24;;;;;;;7.95;1.42;;;18.50;99.90;;;;;;5073444;28;20059;-76
2022/10/01 12:20:55;;;;;;;6.38;1.20;;;18.30;99.90;;;;;;5070731;28;20131;-79
2022/10/01 12:23:34;;;;;;;8.93;1.42;;;18.10;99.90;;;;;;5070097;28;20045;-76
2022/10/01 12:26:26;;;;;;;8.15;1.08;;;18.20;99.90;;;;;;5055743;28;20045;-76
2022/10/01 12:28:56;;;;;;;10.60;1.73;;;18.90;99.90;;;;;;5072488;28;20028;-77
2022/10/01 12:31:32;;;;;;;6.78;1.35;;;19.50;99.90;;;;;;5072734;28;20116;-78
2022/10/01 12:34:21;;;;;;;10.45;1.52;;;19.60;99.90;;;;;;5071985;28;20055;-77
2022/10/01 12:37:04;;;;;;;6.85;1.60;;;19.20;99.90;;;;;;5054649;28;20040;-77
2022/10/01 12:40:01;;;;;;;6.47;1.17;;;18.90;99.90;;;;;;5055748;28;20442;-77
2022/10/01 12:42:46;;;;;;;9.00;1.60;;;19.50;99.90;;;;;;5014398;28;20036;-77
2022/10/01 12:45:50;;;;;;;7.38;1.55;;;20.40;99.90;;;;;;5072041;28;20071;-78
2022/10/01 12:48:53;;;;;;;8.60;1.20;;;21.00;99.90;;;;;;5071266;28;20037;-77
2022/10/01 12:51:22;;;;;;;8.95;1.27;;;21.80;99.90;;;;;;5041407;28;20063;-78
2022/10/01 12:54:03;;;;;;;9.65;1.48;;;22.10;99.90;;;;;;5072127;28;20037;-78
2022/10/01 12:56:39;;;;;;;7.72;1.20;;;22.10;99.90;;;;;;5072314;28;20048;-77
2022/10/01 12:59:18;;;;;;;7.35;1.15;;;21.50;99.90;;;;;;5070029;28;20036;-77
2022/10/01 13:02:18;;;;;;;4.55;0.95;;;20.60;99.90;;;;;;5054753;28;20040;-76
2022/10/01 13:05:03;;;;;;;6.90;1.15;;;19.60;99.90;;;;;;5071675;28;20082;-78
2022/10/01 13:07:38;;;;;;;5.05;0.85;;;18.90;99.90;;;;;;5054258;28;20049;-77
2022/10/01 13:10:15;;;;;;;6.30;1.15;;;18.20;99.90;;;;;;5071282;28;20047;-76
2022/10/01 13:12:55;;;;;;;;;;;17.90;99.90;;;;;;5071879;28;20072;-76
2022/10/01 13:15:26;;;;;;;5.22;1.10;;;17.60;99.90;;;;;;5071105;28;19922;-77